sensor_id;sensor_type;location;lat;lon;timestamp;P1;durP1;ratioP1;P2;durP2;ratioP2
10432;SDS011;5263;48.680;9.004;2024-03-17T00:01:45;4.33;;;3.10;;
10432;SDS011;5263;48.680;9.004;2024-03-17T00:04:11;3.77;;;2.57;;
10432;SDS011;5263;48.680;9.004;2024-03-17T00:06:36;3.50;;;2.80;;
10432;SDS011;5263;48.680;9.004;2024-03-17T00:09:02;6.00;;;4.07;;
10432;SDS011;5263;48.680;9.004;2024-03-17T00:11:31;4.30;;;3.67;;
10432;SDS011;5263;48.680;9.004;2024-03-17T00:13:57;3.63;;;2.97;;
10432;SDS011;5263;48.680;9.004;2024-03-17T00:16:23;4.73;;;3.27;;
10432;SDS011;5263;48.680;9.004;2024-03-17T00:18:48;4.83;;;3.43;;
10432;SDS011;5263;48.680;9.004;2024-03-17T00:21:14;6.87;;;4.17;;
10432;SDS011;5263;48.680;9.004;2024-03-17T00:23:40;4.10;;;3.70;;
10432;SDS011;5263;48.680;9.004;2024-03-17T00:26:06;4.20;;;3.33;;
10432;SDS011;5263;48.680;9.004;2024-03-17T00:28:32;3.93;;;3.03;;
10432;SDS011;5263;48.680;9.004;2024-03-17T00:30:57;4.03;;;3.53;;
10432;SDS011;5263;48.680;9.004;2024-03-17T00:33:23;7.07;;;3.77;;
10432;SDS011;5263;48.680;9.004;2024-03-17T00:35:49;4.33;;;3.43;;
10432;SDS011;5263;48.680;9.004;2024-03-17T00:38:15;6.23;;;4.03;;
10432;SDS011;5263;48.680;9.004;2024-03-17T00:40:40;5.10;;;3.43;;
10432;SDS011;5263;48.680;9.004;2024-03-17T00:43:06;2.27;;;2.07;;
10432;SDS011;5263;48.680;9.004;2024-03-17T00:45:32;2.90;;;2.70;;
10432;SDS011;5263;48.680;9.004;2024-03-17T00:47:58;6.17;;;3.90;;
10432;SDS011;5263;48.680;9.004;2024-03-17T00:50:24;5.13;;;3.73;;
10432;SDS011;5263;48.680;9.004;2024-03-17T00:52:49;4.33;;;3.90;;
10432;SDS011;5263;48.680;9.004;2024-03-17T00:55:15;4.53;;;4.13;;
10432;SDS011;5263;48.680;9.004;2024-03-17T00:57:41;4.40;;;3.33;;
10432;SDS011;5263;48.680;9.004;2024-03-17T01:00:07;5.00;;;4.57;;
10432;SDS011;5263;48.680;9.004;2024-03-17T01:02:40;4.80;;;4.40;;
10432;SDS011;5263;48.680;9.004;2024-03-17T01:05:06;7.00;;;4.37;;
10432;SDS011;5263;48.680;9.004;2024-03-17T01:07:32;5.40;;;4.23;;
10432;SDS011;5263;48.680;9.004;2024-03-17T01:09:58;4.47;;;3.97;;
10432;SDS011;5263;48.680;9.004;2024-03-17T01:12:25;6.33;;;4.90;;
10432;SDS011;5263;48.680;9.004;2024-03-17T01:14:51;4.80;;;4.30;;
10432;SDS011;5263;48.680;9.004;2024-03-17T01:17:16;5.23;;;4.47;;
10432;SDS011;5263;48.680;9.004;2024-03-17T01:19:44;5.30;;;4.80;;
10432;SDS011;5263;48.680;9.004;2024-03-17T01:22:10;5.23;;;4.03;;
10432;SDS011;5263;48.680;9.004;2024-03-17T01:24:35;5.50;;;4.63;;
10432;SDS011;5263;48.680;9.004;2024-03-17T01:27:02;6.03;;;5.13;;
10432;SDS011;5263;48.680;9.004;2024-03-17T01:29:28;5.57;;;5.03;;
10432;SDS011;5263;48.680;9.004;2024-03-17T01:31:53;6.23;;;4.43;;
10432;SDS011;5263;48.680;9.004;2024-03-17T01:34:19;4.10;;;3.70;;
10432;SDS011;5263;48.680;9.004;2024-03-17T01:36:45;4.67;;;3.70;;
10432;SDS011;5263;48.680;9.004;2024-03-17T01:39:10;6.10;;;4.40;;
10432;SDS011;5263;48.680;9.004;2024-03-17T01:41:36;5.07;;;4.57;;
10432;SDS011;5263;48.680;9.004;2024-03-17T01:44:02;4.53;;;4.13;;
10432;SDS011;5263;48.680;9.004;2024-03-17T01:46:28;6.10;;;4.97;;
10432;SDS011;5263;48.680;9.004;2024-03-17T01:48:54;6.90;;;4.57;;
10432;SDS011;5263;48.680;9.004;2024-03-17T01:51:19;5.07;;;4.57;;
10432;SDS011;5263;48.680;9.004;2024-03-17T01:53:46;5.53;;;4.37;;
10432;SDS011;5263;48.680;9.004;2024-03-17T01:56:12;5.23;;;4.73;;
10432;SDS011;5263;48.680;9.004;2024-03-17T01:58:40;5.40;;;4.80;;
10432;SDS011;5263;48.680;9.004;2024-03-17T02:01:11;4.47;;;4.17;;
10432;SDS011;5263;48.680;9.004;2024-03-17T02:03:39;5.93;;;4.53;;
10432;SDS011;5263;48.680;9.004;2024-03-17T02:06:06;6.67;;;4.67;;
10432;SDS011;5263;48.680;9.004;2024-03-17T02:08:47;6.90;;;4.87;;
10432;SDS011;5263;48.680;9.004;2024-03-17T02:11:27;4.97;;;4.57;;
10432;SDS011;5263;48.680;9.004;2024-03-17T02:13:54;7.73;;;5.47;;
10432;SDS011;5263;48.680;9.004;2024-03-17T02:16:21;6.80;;;4.83;;
10432;SDS011;5263;48.680;9.004;2024-03-17T02:18:47;5.60;;;5.10;;
10432;SDS011;5263;48.680;9.004;2024-03-17T02:21:13;10.47;;;5.00;;
10432;SDS011;5263;48.680;9.004;2024-03-17T02:23:41;5.40;;;4.90;;
10432;SDS011;5263;48.680;9.004;2024-03-17T02:26:07;8.30;;;5.50;;
10432;SDS011;5263;48.680;9.004;2024-03-17T02:28:43;5.23;;;4.70;;
10432;SDS011;5263;48.680;9.004;2024-03-17T02:31:10;5.07;;;4.57;;
10432;SDS011;5263;48.680;9.004;2024-03-17T02:33:37;4.50;;;4.10;;
10432;SDS011;5263;48.680;9.004;2024-03-17T02:36:06;7.53;;;5.17;;
10432;SDS011;5263;48.680;9.004;2024-03-17T02:38:33;8.00;;;5.83;;
10432;SDS011;5263;48.680;9.004;2024-03-17T02:41:17;6.93;;;4.67;;
10432;SDS011;5263;48.680;9.004;2024-03-17T02:43:43;8.80;;;5.63;;
10432;SDS011;5263;48.680;9.004;2024-03-17T02:46:13;8.50;;;4.60;;
10432;SDS011;5263;48.680;9.004;2024-03-17T02:48:43;8.30;;;5.03;;
10432;SDS011;5263;48.680;9.004;2024-03-17T02:51:15;7.77;;;4.30;;
10432;SDS011;5263;48.680;9.004;2024-03-17T02:53:42;5.47;;;4.97;;
10432;SDS011;5263;48.680;9.004;2024-03-17T02:56:12;6.37;;;5.63;;
10432;SDS011;5263;48.680;9.004;2024-03-17T02:58:41;5.53;;;4.87;;
10432;SDS011;5263;48.680;9.004;2024-03-17T03:01:07;6.10;;;5.23;;
10432;SDS011;5263;48.680;9.004;2024-03-17T03:03:34;7.40;;;5.93;;
10432;SDS011;5263;48.680;9.004;2024-03-17T03:06:01;6.50;;;5.40;;
10432;SDS011;5263;48.680;9.004;2024-03-17T03:08:29;6.73;;;6.03;;
10432;SDS011;5263;48.680;9.004;2024-03-17T03:10:55;8.30;;;6.37;;
10432;SDS011;5263;48.680;9.004;2024-03-17T03:13:20;9.87;;;6.43;;
10432;SDS011;5263;48.680;9.004;2024-03-17T03:15:47;9.37;;;5.97;;
10432;SDS011;5263;48.680;9.004;2024-03-17T03:18:13;8.30;;;6.37;;
10432;SDS011;5263;48.680;9.004;2024-03-17T03:20:39;9.43;;;5.83;;
10432;SDS011;5263;48.680;9.004;2024-03-17T03:23:05;10.63;;;7.00;;
10432;SDS011;5263;48.680;9.004;2024-03-17T03:25:31;12.20;;;6.03;;
10432;SDS011;5263;48.680;9.004;2024-03-17T03:27:56;8.90;;;6.03;;
10432;SDS011;5263;48.680;9.004;2024-03-17T03:30:23;7.33;;;4.97;;
10432;SDS011;5263;48.680;9.004;2024-03-17T03:32:49;6.00;;;5.03;;
10432;SDS011;5263;48.680;9.004;2024-03-17T03:35:14;6.90;;;5.53;;
10432;SDS011;5263;48.680;9.004;2024-03-17T03:37:40;6.83;;;6.23;;
10432;SDS011;5263;48.680;9.004;2024-03-17T03:40:06;7.67;;;6.57;;
10432;SDS011;5263;48.680;9.004;2024-03-17T03:42:44;8.10;;;6.37;;
10432;SDS011;5263;48.680;9.004;2024-03-17T03:45:10;10.07;;;6.43;;
10432;SDS011;5263;48.680;9.004;2024-03-17T03:47:39;7.00;;;5.90;;
10432;SDS011;5263;48.680;9.004;2024-03-17T03:50:15;7.27;;;6.13;;
10432;SDS011;5263;48.680;9.004;2024-03-17T03:52:44;6.77;;;5.67;;
10432;SDS011;5263;48.680;9.004;2024-03-17T03:55:11;8.83;;;5.93;;
10432;SDS011;5263;48.680;9.004;2024-03-17T03:57:41;6.83;;;5.67;;
10432;SDS011;5263;48.680;9.004;2024-03-17T04:00:07;10.90;;;6.60;;
10432;SDS011;5263;48.680;9.004;2024-03-17T04:02:40;6.30;;;5.27;;
10432;SDS011;5263;48.680;9.004;2024-03-17T04:05:09;5.80;;;5.30;;
10432;SDS011;5263;48.680;9.004;2024-03-17T04:07:35;5.57;;;4.70;;
10432;SDS011;5263;48.680;9.004;2024-03-17T04:10:02;8.47;;;5.60;;
10432;SDS011;5263;48.680;9.004;2024-03-17T04:12:28;9.53;;;5.13;;
10432;SDS011;5263;48.680;9.004;2024-03-17T04:14:57;4.93;;;4.43;;
10432;SDS011;5263;48.680;9.004;2024-03-17T04:17:23;8.07;;;4.70;;
10432;SDS011;5263;48.680;9.004;2024-03-17T04:19:49;6.27;;;5.20;;
10432;SDS011;5263;48.680;9.004;2024-03-17T04:22:16;5.47;;;4.93;;
10432;SDS011;5263;48.680;9.004;2024-03-17T04:24:43;4.53;;;4.10;;
10432;SDS011;5263;48.680;9.004;2024-03-17T04:27:09;6.60;;;5.90;;
10432;SDS011;5263;48.680;9.004;2024-03-17T04:29:34;5.50;;;5.07;;
10432;SDS011;5263;48.680;9.004;2024-03-17T04:32:00;7.77;;;4.87;;
10432;SDS011;5263;48.680;9.004;2024-03-17T04:34:26;6.30;;;5.00;;
10432;SDS011;5263;48.680;9.004;2024-03-17T04:36:52;7.97;;;4.43;;
10432;SDS011;5263;48.680;9.004;2024-03-17T04:39:18;5.00;;;4.47;;
10432;SDS011;5263;48.680;9.004;2024-03-17T04:41:44;11.27;;;5.53;;
10432;SDS011;5263;48.680;9.004;2024-03-17T04:44:10;4.77;;;4.37;;
10432;SDS011;5263;48.680;9.004;2024-03-17T04:46:36;7.13;;;4.70;;
10432;SDS011;5263;48.680;9.004;2024-03-17T04:49:01;6.90;;;5.00;;
10432;SDS011;5263;48.680;9.004;2024-03-17T04:51:28;6.03;;;4.70;;
10432;SDS011;5263;48.680;9.004;2024-03-17T04:53:54;5.83;;;5.20;;
10432;SDS011;5263;48.680;9.004;2024-03-17T04:56:20;6.03;;;5.43;;
10432;SDS011;5263;48.680;9.004;2024-03-17T04:58:46;6.80;;;4.97;;
10432;SDS011;5263;48.680;9.004;2024-03-17T05:01:11;6.07;;;5.10;;
10432;SDS011;5263;48.680;9.004;2024-03-17T05:03:38;5.03;;;4.53;;
10432;SDS011;5263;48.680;9.004;2024-03-17T05:06:04;7.90;;;5.60;;
10432;SDS011;5263;48.680;9.004;2024-03-17T05:08:30;5.77;;;5.17;;
10432;SDS011;5263;48.680;9.004;2024-03-17T05:10:57;6.03;;;4.90;;
10432;SDS011;5263;48.680;9.004;2024-03-17T05:13:24;5.30;;;4.77;;
10432;SDS011;5263;48.680;9.004;2024-03-17T05:15:51;7.43;;;5.33;;
10432;SDS011;5263;48.680;9.004;2024-03-17T05:18:17;6.73;;;5.73;;
10432;SDS011;5263;48.680;9.004;2024-03-17T05:20:42;6.80;;;5.47;;
10432;SDS011;5263;48.680;9.004;2024-03-17T05:23:08;9.57;;;5.83;;
10432;SDS011;5263;48.680;9.004;2024-03-17T05:25:33;6.23;;;4.77;;
10432;SDS011;5263;48.680;9.004;2024-03-17T05:28:02;6.43;;;5.00;;
10432;SDS011;5263;48.680;9.004;2024-03-17T05:30:28;5.13;;;4.57;;
10432;SDS011;5263;48.680;9.004;2024-03-17T05:32:54;6.77;;;4.77;;
10432;SDS011;5263;48.680;9.004;2024-03-17T05:35:19;10.40;;;5.50;;
10432;SDS011;5263;48.680;9.004;2024-03-17T05:37:45;6.10;;;5.50;;
10432;SDS011;5263;48.680;9.004;2024-03-17T05:40:10;5.93;;;5.00;;
10432;SDS011;5263;48.680;9.004;2024-03-17T05:42:42;5.40;;;4.90;;
10432;SDS011;5263;48.680;9.004;2024-03-17T05:45:10;7.23;;;5.30;;
10432;SDS011;5263;48.680;9.004;2024-03-17T05:47:37;6.07;;;5.17;;
10432;SDS011;5263;48.680;9.004;2024-03-17T05:50:03;5.97;;;5.30;;
10432;SDS011;5263;48.680;9.004;2024-03-17T05:52:29;12.07;;;6.47;;
10432;SDS011;5263;48.680;9.004;2024-03-17T05:54:55;7.83;;;6.33;;
10432;SDS011;5263;48.680;9.004;2024-03-17T05:57:21;8.90;;;6.10;;
10432;SDS011;5263;48.680;9.004;2024-03-17T05:59:47;8.37;;;6.00;;
10432;SDS011;5263;48.680;9.004;2024-03-17T06:02:13;6.07;;;5.47;;
10432;SDS011;5263;48.680;9.004;2024-03-17T06:04:40;9.27;;;6.50;;
10432;SDS011;5263;48.680;9.004;2024-03-17T06:07:05;7.23;;;6.20;;
10432;SDS011;5263;48.680;9.004;2024-03-17T06:09:31;7.13;;;5.83;;
10432;SDS011;5263;48.680;9.004;2024-03-17T06:11:57;9.70;;;7.07;;
10432;SDS011;5263;48.680;9.004;2024-03-17T06:14:22;7.40;;;6.23;;
10432;SDS011;5263;48.680;9.004;2024-03-17T06:16:48;6.67;;;5.40;;
10432;SDS011;5263;48.680;9.004;2024-03-17T06:19:14;8.33;;;7.37;;
10432;SDS011;5263;48.680;9.004;2024-03-17T06:21:39;8.80;;;7.17;;
10432;SDS011;5263;48.680;9.004;2024-03-17T06:24:05;10.60;;;7.60;;
10432;SDS011;5263;48.680;9.004;2024-03-17T06:26:31;10.40;;;6.47;;
10432;SDS011;5263;48.680;9.004;2024-03-17T06:28:59;8.10;;;5.93;;
10432;SDS011;5263;48.680;9.004;2024-03-17T06:31:25;9.03;;;7.03;;
10432;SDS011;5263;48.680;9.004;2024-03-17T06:33:51;9.43;;;7.47;;
10432;SDS011;5263;48.680;9.004;2024-03-17T06:36:16;7.93;;;7.13;;
10432;SDS011;5263;48.680;9.004;2024-03-17T06:38:42;7.90;;;7.17;;
10432;SDS011;5263;48.680;9.004;2024-03-17T06:41:09;8.40;;;7.47;;
10432;SDS011;5263;48.680;9.004;2024-03-17T06:43:35;9.57;;;8.43;;
10432;SDS011;5263;48.680;9.004;2024-03-17T06:46:01;12.63;;;9.53;;
10432;SDS011;5263;48.680;9.004;2024-03-17T06:48:27;11.97;;;8.10;;
10432;SDS011;5263;48.680;9.004;2024-03-17T06:50:53;15.20;;;10.00;;
10432;SDS011;5263;48.680;9.004;2024-03-17T06:53:20;11.63;;;8.30;;
10432;SDS011;5263;48.680;9.004;2024-03-17T06:55:53;17.53;;;8.30;;
10432;SDS011;5263;48.680;9.004;2024-03-17T06:58:22;9.03;;;7.73;;
10432;SDS011;5263;48.680;9.004;2024-03-17T07:00:56;11.40;;;8.43;;
10432;SDS011;5263;48.680;9.004;2024-03-17T07:03:23;9.87;;;7.17;;
10432;SDS011;5263;48.680;9.004;2024-03-17T07:05:53;8.70;;;7.57;;
10432;SDS011;5263;48.680;9.004;2024-03-17T07:08:20;8.57;;;7.30;;
10432;SDS011;5263;48.680;9.004;2024-03-17T07:11:05;10.13;;;7.13;;
10432;SDS011;5263;48.680;9.004;2024-03-17T07:13:35;9.43;;;7.90;;
10432;SDS011;5263;48.680;9.004;2024-03-17T07:16:02;8.77;;;7.23;;
10432;SDS011;5263;48.680;9.004;2024-03-17T07:18:29;10.87;;;7.23;;
10432;SDS011;5263;48.680;9.004;2024-03-17T07:21:13;9.10;;;7.33;;
10432;SDS011;5263;48.680;9.004;2024-03-17T07:23:38;9.47;;;8.57;;
10432;SDS011;5263;48.680;9.004;2024-03-17T07:26:04;10.20;;;7.00;;
10432;SDS011;5263;48.680;9.004;2024-03-17T07:28:30;7.97;;;6.70;;
10432;SDS011;5263;48.680;9.004;2024-03-17T07:30:57;8.20;;;6.90;;
10432;SDS011;5263;48.680;9.004;2024-03-17T07:33:25;6.73;;;5.90;;
10432;SDS011;5263;48.680;9.004;2024-03-17T07:35:54;6.60;;;5.97;;
10432;SDS011;5263;48.680;9.004;2024-03-17T07:38:28;6.90;;;5.80;;
10432;SDS011;5263;48.680;9.004;2024-03-17T07:41:04;6.77;;;5.30;;
10432;SDS011;5263;48.680;9.004;2024-03-17T07:43:32;6.57;;;6.07;;
10432;SDS011;5263;48.680;9.004;2024-03-17T07:46:05;6.07;;;5.40;;
10432;SDS011;5263;48.680;9.004;2024-03-17T07:48:33;5.63;;;5.17;;
10432;SDS011;5263;48.680;9.004;2024-03-17T07:51:01;6.13;;;5.00;;
10432;SDS011;5263;48.680;9.004;2024-03-17T07:53:29;6.87;;;6.30;;
10432;SDS011;5263;48.680;9.004;2024-03-17T07:56:01;7.13;;;6.10;;
10432;SDS011;5263;48.680;9.004;2024-03-17T07:58:29;5.77;;;4.73;;
10432;SDS011;5263;48.680;9.004;2024-03-17T08:00:58;6.47;;;5.53;;
10432;SDS011;5263;48.680;9.004;2024-03-17T08:03:25;6.60;;;5.90;;
10432;SDS011;5263;48.680;9.004;2024-03-17T08:05:51;9.00;;;6.63;;
10432;SDS011;5263;48.680;9.004;2024-03-17T08:08:17;7.13;;;5.67;;
10432;SDS011;5263;48.680;9.004;2024-03-17T08:10:44;6.50;;;5.90;;
10432;SDS011;5263;48.680;9.004;2024-03-17T08:13:10;8.43;;;5.63;;
10432;SDS011;5263;48.680;9.004;2024-03-17T08:15:35;5.27;;;4.77;;
10432;SDS011;5263;48.680;9.004;2024-03-17T08:18:02;5.77;;;4.50;;
10432;SDS011;5263;48.680;9.004;2024-03-17T08:20:28;3.80;;;3.53;;
10432;SDS011;5263;48.680;9.004;2024-03-17T08:22:54;4.73;;;4.20;;
10432;SDS011;5263;48.680;9.004;2024-03-17T08:25:20;4.50;;;3.17;;
10432;SDS011;5263;48.680;9.004;2024-03-17T08:27:46;2.97;;;2.73;;
10432;SDS011;5263;48.680;9.004;2024-03-17T08:30:11;4.73;;;3.67;;
10432;SDS011;5263;48.680;9.004;2024-03-17T08:32:38;3.87;;;3.40;;
10432;SDS011;5263;48.680;9.004;2024-03-17T08:35:04;5.27;;;2.67;;
10432;SDS011;5263;48.680;9.004;2024-03-17T08:37:31;4.53;;;3.50;;
10432;SDS011;5263;48.680;9.004;2024-03-17T08:39:56;3.87;;;3.50;;
10432;SDS011;5263;48.680;9.004;2024-03-17T08:42:22;5.90;;;3.43;;
10432;SDS011;5263;48.680;9.004;2024-03-17T08:44:47;3.70;;;3.33;;
10432;SDS011;5263;48.680;9.004;2024-03-17T08:47:13;3.37;;;3.07;;
10432;SDS011;5263;48.680;9.004;2024-03-17T08:49:39;3.83;;;3.20;;
10432;SDS011;5263;48.680;9.004;2024-03-17T08:52:05;3.40;;;3.13;;
10432;SDS011;5263;48.680;9.004;2024-03-17T08:54:30;3.97;;;3.23;;
10432;SDS011;5263;48.680;9.004;2024-03-17T08:56:56;2.73;;;2.53;;
10432;SDS011;5263;48.680;9.004;2024-03-17T08:59:21;4.80;;;2.67;;
10432;SDS011;5263;48.680;9.004;2024-03-17T09:01:47;4.40;;;2.13;;
10432;SDS011;5263;48.680;9.004;2024-03-17T09:04:12;3.77;;;2.40;;
10432;SDS011;5263;48.680;9.004;2024-03-17T09:06:38;4.27;;;2.03;;
10432;SDS011;5263;48.680;9.004;2024-03-17T09:09:03;2.30;;;1.93;;
10432;SDS011;5263;48.680;9.004;2024-03-17T09:11:31;3.20;;;2.20;;
10432;SDS011;5263;48.680;9.004;2024-03-17T09:13:56;1.87;;;1.77;;
10432;SDS011;5263;48.680;9.004;2024-03-17T09:16:23;1.70;;;1.60;;
10432;SDS011;5263;48.680;9.004;2024-03-17T09:18:50;2.37;;;1.47;;
10432;SDS011;5263;48.680;9.004;2024-03-17T09:21:16;1.90;;;1.33;;
10432;SDS011;5263;48.680;9.004;2024-03-17T09:23:42;2.47;;;1.23;;
10432;SDS011;5263;48.680;9.004;2024-03-17T09:26:08;2.20;;;1.13;;
10432;SDS011;5263;48.680;9.004;2024-03-17T09:28:35;4.00;;;1.20;;
10432;SDS011;5263;48.680;9.004;2024-03-17T09:31:01;1.80;;;1.10;;
10432;SDS011;5263;48.680;9.004;2024-03-17T09:33:28;3.00;;;1.50;;
10432;SDS011;5263;48.680;9.004;2024-03-17T09:36:02;1.33;;;1.23;;
10432;SDS011;5263;48.680;9.004;2024-03-17T09:38:29;3.30;;;1.30;;
10432;SDS011;5263;48.680;9.004;2024-03-17T09:40:55;1.90;;;1.53;;
10432;SDS011;5263;48.680;9.004;2024-03-17T09:43:26;1.70;;;1.00;;
10432;SDS011;5263;48.680;9.004;2024-03-17T09:45:57;1.50;;;1.20;;
10432;SDS011;5263;48.680;9.004;2024-03-17T09:48:26;2.50;;;1.20;;
10432;SDS011;5263;48.680;9.004;2024-03-17T09:50:54;2.93;;;1.40;;
10432;SDS011;5263;48.680;9.004;2024-03-17T09:53:27;3.73;;;1.80;;
10432;SDS011;5263;48.680;9.004;2024-03-17T09:55:58;2.07;;;1.73;;
10432;SDS011;5263;48.680;9.004;2024-03-17T09:58:25;1.60;;;1.43;;
10432;SDS011;5263;48.680;9.004;2024-03-17T10:00:51;1.63;;;1.23;;
10432;SDS011;5263;48.680;9.004;2024-03-17T10:06:30;1.47;;;1.37;;
10432;SDS011;5263;48.680;9.004;2024-03-17T10:08:59;1.60;;;1.30;;
10432;SDS011;5263;48.680;9.004;2024-03-17T10:11:32;2.50;;;1.37;;
10432;SDS011;5263;48.680;9.004;2024-03-17T10:14:00;3.00;;;1.13;;
10432;SDS011;5263;48.680;9.004;2024-03-17T10:16:27;1.30;;;1.20;;
10432;SDS011;5263;48.680;9.004;2024-03-17T10:21:45;2.37;;;1.37;;
10432;SDS011;5263;48.680;9.004;2024-03-17T10:24:24;1.33;;;1.23;;
10432;SDS011;5263;48.680;9.004;2024-03-17T10:26:57;1.67;;;0.93;;
10432;SDS011;5263;48.680;9.004;2024-03-17T10:29:25;1.20;;;1.10;;
10432;SDS011;5263;48.680;9.004;2024-03-17T10:31:54;1.03;;;0.93;;
10432;SDS011;5263;48.680;9.004;2024-03-17T10:34:21;3.13;;;1.30;;
10432;SDS011;5263;48.680;9.004;2024-03-17T10:39:39;0.93;;;0.90;;
10432;SDS011;5263;48.680;9.004;2024-03-17T10:42:06;3.93;;;1.20;;
10432;SDS011;5263;48.680;9.004;2024-03-17T10:44:39;3.50;;;1.20;;
10432;SDS011;5263;48.680;9.004;2024-03-17T10:47:06;1.43;;;1.00;;
10432;SDS011;5263;48.680;9.004;2024-03-17T10:49:41;2.10;;;1.00;;
10432;SDS011;5263;48.680;9.004;2024-03-17T10:52:15;10.33;;;0.90;;
10432;SDS011;5263;48.680;9.004;2024-03-17T10:54:47;1.20;;;1.10;;
10432;SDS011;5263;48.680;9.004;2024-03-17T10:57:20;0.93;;;0.87;;
10432;SDS011;5263;48.680;9.004;2024-03-17T11:00:10;2.00;;;1.00;;
10432;SDS011;5263;48.680;9.004;2024-03-17T11:02:42;5.43;;;1.40;;
10432;SDS011;5263;48.680;9.004;2024-03-17T11:07:40;1.90;;;0.50;;
10432;SDS011;5263;48.680;9.004;2024-03-17T11:10:24;1.40;;;0.57;;
10432;SDS011;5263;48.680;9.004;2024-03-17T11:12:54;1.33;;;0.43;;
10432;SDS011;5263;48.680;9.004;2024-03-17T11:20:40;1.67;;;0.70;;
10432;SDS011;5263;48.680;9.004;2024-03-17T11:23:07;1.37;;;0.57;;
10432;SDS011;5263;48.680;9.004;2024-03-17T11:25:37;3.10;;;1.17;;
10432;SDS011;5263;48.680;9.004;2024-03-17T11:28:03;2.00;;;0.60;;
10432;SDS011;5263;48.680;9.004;2024-03-17T11:41:50;1.33;;;0.70;;
10432;SDS011;5263;48.680;9.004;2024-03-17T11:46:46;1.27;;;0.70;;
10432;SDS011;5263;48.680;9.004;2024-03-17T11:49:19;1.57;;;0.60;;
10432;SDS011;5263;48.680;9.004;2024-03-17T11:52:12;1.07;;;0.70;;
10432;SDS011;5263;48.680;9.004;2024-03-17T11:54:39;1.57;;;0.83;;
10432;SDS011;5263;48.680;9.004;2024-03-17T11:57:07;1.37;;;0.60;;
10432;SDS011;5263;48.680;9.004;2024-03-17T11:59:36;1.73;;;0.50;;
10432;SDS011;5263;48.680;9.004;2024-03-17T12:02:09;1.03;;;0.50;;
10432;SDS011;5263;48.680;9.004;2024-03-17T12:04:42;3.20;;;0.67;;
10432;SDS011;5263;48.680;9.004;2024-03-17T12:07:11;1.63;;;0.67;;
10432;SDS011;5263;48.680;9.004;2024-03-17T12:09:40;0.77;;;0.70;;
10432;SDS011;5263;48.680;9.004;2024-03-17T12:12:25;1.47;;;0.60;;
10432;SDS011;5263;48.680;9.004;2024-03-17T12:15:01;1.37;;;0.60;;
10432;SDS011;5263;48.680;9.004;2024-03-17T12:17:28;0.67;;;0.67;;
10432;SDS011;5263;48.680;9.004;2024-03-17T12:19:54;4.60;;;0.70;;
10432;SDS011;5263;48.680;9.004;2024-03-17T12:22:24;2.10;;;1.63;;
10432;SDS011;5263;48.680;9.004;2024-03-17T12:24:57;2.27;;;0.67;;
10432;SDS011;5263;48.680;9.004;2024-03-17T12:27:25;2.20;;;0.70;;
10432;SDS011;5263;48.680;9.004;2024-03-17T12:29:51;0.67;;;0.50;;
10432;SDS011;5263;48.680;9.004;2024-03-17T12:32:18;0.70;;;0.40;;
10432;SDS011;5263;48.680;9.004;2024-03-17T12:34:46;0.57;;;0.53;;
10432;SDS011;5263;48.680;9.004;2024-03-17T12:37:22;0.97;;;0.50;;
10432;SDS011;5263;48.680;9.004;2024-03-17T12:39:51;1.13;;;0.60;;
10432;SDS011;5263;48.680;9.004;2024-03-17T12:42:22;0.90;;;0.60;;
10432;SDS011;5263;48.680;9.004;2024-03-17T12:44:59;1.23;;;0.70;;
10432;SDS011;5263;48.680;9.004;2024-03-17T12:47:29;3.00;;;0.87;;
10432;SDS011;5263;48.680;9.004;2024-03-17T12:49:56;1.90;;;0.50;;
10432;SDS011;5263;48.680;9.004;2024-03-17T12:52:30;2.93;;;0.63;;
10432;SDS011;5263;48.680;9.004;2024-03-17T12:57:48;0.80;;;0.50;;
10432;SDS011;5263;48.680;9.004;2024-03-17T13:00:34;2.00;;;0.63;;
10432;SDS011;5263;48.680;9.004;2024-03-17T13:03:03;1.00;;;0.60;;
10432;SDS011;5263;48.680;9.004;2024-03-17T13:05:30;3.07;;;0.60;;
10432;SDS011;5263;48.680;9.004;2024-03-17T13:08:00;1.30;;;0.53;;
10432;SDS011;5263;48.680;9.004;2024-03-17T13:10:26;0.50;;;0.50;;
10432;SDS011;5263;48.680;9.004;2024-03-17T13:13:03;0.63;;;0.63;;
10432;SDS011;5263;48.680;9.004;2024-03-17T13:15:30;1.20;;;0.60;;
10432;SDS011;5263;48.680;9.004;2024-03-17T13:17:59;0.70;;;0.70;;
10432;SDS011;5263;48.680;9.004;2024-03-17T13:20:24;0.70;;;0.70;;
10432;SDS011;5263;48.680;9.004;2024-03-17T13:22:51;0.53;;;0.37;;
10432;SDS011;5263;48.680;9.004;2024-03-17T13:25:17;3.50;;;0.50;;
10432;SDS011;5263;48.680;9.004;2024-03-17T13:27:46;2.50;;;0.80;;
10432;SDS011;5263;48.680;9.004;2024-03-17T13:30:13;1.57;;;0.43;;
10432;SDS011;5263;48.680;9.004;2024-03-17T13:32:43;1.07;;;0.40;;
10432;SDS011;5263;48.680;9.004;2024-03-17T13:35:16;2.30;;;0.50;;
10432;SDS011;5263;48.680;9.004;2024-03-17T13:37:45;0.83;;;0.47;;
10432;SDS011;5263;48.680;9.004;2024-03-17T13:40:12;0.63;;;0.50;;
10432;SDS011;5263;48.680;9.004;2024-03-17T13:42:41;2.47;;;0.50;;
10432;SDS011;5263;48.680;9.004;2024-03-17T13:45:11;0.97;;;0.40;;
10432;SDS011;5263;48.680;9.004;2024-03-17T13:47:37;2.23;;;0.43;;
10432;SDS011;5263;48.680;9.004;2024-03-17T13:50:04;2.30;;;0.50;;
10432;SDS011;5263;48.680;9.004;2024-03-17T13:52:35;1.40;;;0.50;;
10432;SDS011;5263;48.680;9.004;2024-03-17T13:55:12;1.80;;;0.40;;
10432;SDS011;5263;48.680;9.004;2024-03-17T13:57:46;0.83;;;0.40;;
10432;SDS011;5263;48.680;9.004;2024-03-17T14:00:14;0.87;;;0.37;;
10432;SDS011;5263;48.680;9.004;2024-03-17T14:02:44;1.10;;;0.50;;
10432;SDS011;5263;48.680;9.004;2024-03-17T14:05:15;1.00;;;0.30;;
10432;SDS011;5263;48.680;9.004;2024-03-17T14:07:42;1.27;;;0.40;;
10432;SDS011;5263;48.680;9.004;2024-03-17T14:10:08;0.73;;;0.33;;
10432;SDS011;5263;48.680;9.004;2024-03-17T14:12:38;2.37;;;0.47;;
10432;SDS011;5263;48.680;9.004;2024-03-17T14:15:04;1.20;;;0.30;;
10432;SDS011;5263;48.680;9.004;2024-03-17T14:17:30;0.63;;;0.30;;
10432;SDS011;5263;48.680;9.004;2024-03-17T14:19:56;0.70;;;0.37;;
10432;SDS011;5263;48.680;9.004;2024-03-17T14:22:22;1.23;;;0.33;;
10432;SDS011;5263;48.680;9.004;2024-03-17T14:24:47;0.50;;;0.30;;
10432;SDS011;5263;48.680;9.004;2024-03-17T14:27:14;0.53;;;0.30;;
10432;SDS011;5263;48.680;9.004;2024-03-17T14:29:41;2.50;;;0.30;;
10432;SDS011;5263;48.680;9.004;2024-03-17T14:32:06;1.70;;;0.43;;
10432;SDS011;5263;48.680;9.004;2024-03-17T14:34:32;3.23;;;0.40;;
10432;SDS011;5263;48.680;9.004;2024-03-17T14:37:01;2.53;;;0.40;;
10432;SDS011;5263;48.680;9.004;2024-03-17T14:39:27;1.90;;;0.60;;
10432;SDS011;5263;48.680;9.004;2024-03-17T14:41:54;2.00;;;0.60;;
10432;SDS011;5263;48.680;9.004;2024-03-17T14:44:20;0.97;;;0.40;;
10432;SDS011;5263;48.680;9.004;2024-03-17T14:46:47;1.03;;;0.20;;
10432;SDS011;5263;48.680;9.004;2024-03-17T14:49:14;1.97;;;0.57;;
10432;SDS011;5263;48.680;9.004;2024-03-17T14:51:40;2.00;;;0.27;;
10432;SDS011;5263;48.680;9.004;2024-03-17T14:54:06;1.03;;;0.30;;
10432;SDS011;5263;48.680;9.004;2024-03-17T14:56:33;1.50;;;0.20;;
10432;SDS011;5263;48.680;9.004;2024-03-17T14:58:58;1.53;;;0.40;;
10432;SDS011;5263;48.680;9.004;2024-03-17T15:01:24;5.97;;;2.50;;
10432;SDS011;5263;48.680;9.004;2024-03-17T15:03:51;0.60;;;0.40;;
10432;SDS011;5263;48.680;9.004;2024-03-17T15:06:16;0.87;;;0.60;;
10432;SDS011;5263;48.680;9.004;2024-03-17T15:08:43;2.00;;;0.50;;
10432;SDS011;5263;48.680;9.004;2024-03-17T15:11:09;1.50;;;0.30;;
10432;SDS011;5263;48.680;9.004;2024-03-17T15:13:35;1.60;;;0.30;;
10432;SDS011;5263;48.680;9.004;2024-03-17T15:16:02;0.53;;;0.33;;
10432;SDS011;5263;48.680;9.004;2024-03-17T15:18:29;0.77;;;0.27;;
10432;SDS011;5263;48.680;9.004;2024-03-17T15:20:59;1.20;;;0.40;;
10432;SDS011;5263;48.680;9.004;2024-03-17T15:23:30;1.70;;;0.30;;
10432;SDS011;5263;48.680;9.004;2024-03-17T15:26:03;0.83;;;0.20;;
10432;SDS011;5263;48.680;9.004;2024-03-17T15:28:38;0.77;;;0.27;;
10432;SDS011;5263;48.680;9.004;2024-03-17T15:31:05;0.50;;;0.20;;
10432;SDS011;5263;48.680;9.004;2024-03-17T15:33:34;1.10;;;0.50;;
10432;SDS011;5263;48.680;9.004;2024-03-17T15:36:02;2.10;;;0.50;;
10432;SDS011;5263;48.680;9.004;2024-03-17T15:38:29;0.30;;;0.30;;